createdAt,value
2024-01-16T00:00:44.109Z,935
2024-01-16T00:01:45.969Z,935
2024-01-16T00:02:47.969Z,934.9
2024-01-16T00:03:50.064Z,935
2024-01-16T00:04:51.857Z,935
2024-01-16T00:05:53.669Z,935.1
2024-01-16T00:06:55.688Z,935.1
2024-01-16T00:07:57.531Z,935.3
2024-01-16T00:08:59.310Z,935.4
2024-01-16T00:10:01.036Z,935.4
2024-01-16T00:11:02.846Z,935.3
2024-01-16T00:12:04.761Z,935.2
2024-01-16T00:13:06.697Z,935.2
2024-01-16T00:14:08.556Z,935.3
2024-01-16T00:15:10.378Z,935.4
2024-01-16T00:16:12.304Z,935.4
2024-01-16T00:17:14.124Z,935.3
2024-01-16T00:18:16.640Z,935.2
2024-01-16T00:19:19.329Z,935.2
2024-01-16T00:20:21.123Z,935.3
2024-01-16T00:21:22.831Z,935.5
2024-01-16T00:22:24.529Z,935.6
2024-01-16T00:23:29.512Z,935.5
2024-01-16T00:24:31.323Z,935.3
2024-01-16T00:25:33.054Z,935.2
2024-01-16T00:26:34.929Z,935.2
2024-01-16T00:27:37.042Z,935.2
2024-01-16T00:28:38.763Z,935.2
2024-01-16T00:29:43.955Z,935.2
2024-01-16T00:30:45.677Z,935.3
2024-01-16T00:31:47.479Z,935.4
2024-01-16T00:32:49.735Z,935.4
2024-01-16T00:33:52.191Z,935.4
2024-01-16T00:34:54.135Z,935.3
2024-01-16T00:35:56.165Z,935.4
2024-01-16T00:36:58.006Z,935.6
2024-01-16T00:37:59.802Z,935.6
2024-01-16T00:39:01.549Z,935.5
2024-01-16T00:40:03.276Z,935.3
2024-01-16T00:41:05.479Z,935.2
2024-01-16T00:42:07.673Z,935.5
2024-01-16T00:43:09.735Z,935.6
2024-01-16T00:44:11.532Z,935.6
2024-01-16T00:45:13.331Z,935.7
2024-01-16T00:46:15.202Z,935.7
2024-01-16T00:47:17.144Z,935.6
2024-01-16T00:48:19.429Z,935.5
2024-01-16T00:49:22.879Z,935.5
2024-01-16T00:50:27.393Z,935.6
2024-01-16T00:51:29.247Z,935.7
2024-01-16T00:52:31.003Z,935.8
2024-01-16T00:53:32.814Z,935.7
2024-01-16T00:54:34.635Z,935.5
2024-01-16T00:55:36.345Z,935.4
2024-01-16T00:56:38.598Z,935.6
2024-01-16T00:57:40.522Z,935.7
2024-01-16T00:58:42.319Z,935.7
2024-01-16T00:59:44.177Z,935.8
2024-01-16T01:00:46.218Z,935.8
2024-01-16T01:01:48.003Z,935.8
2024-01-16T01:02:49.936Z,935.9
2024-01-16T01:03:52.095Z,936
2024-01-16T01:04:54.083Z,935.8
2024-01-16T01:05:56.499Z,935.6
2024-01-16T01:06:58.550Z,935.7
2024-01-16T01:08:00.278Z,936
2024-01-16T01:09:02.003Z,936.1
2024-01-16T01:10:03.775Z,935.9
2024-01-16T01:11:05.967Z,935.7
2024-01-16T01:12:07.756Z,935.8
2024-01-16T01:13:09.466Z,935.9
2024-01-16T01:14:11.627Z,935.9
2024-01-16T01:15:13.852Z,935.9
2024-01-16T01:16:15.882Z,935.8
2024-01-16T01:17:17.838Z,935.8
2024-01-16T01:18:20.362Z,935.9
2024-01-16T01:19:22.740Z,935.9
2024-01-16T01:20:25.072Z,935.8
2024-01-16T01:21:26.938Z,935.9
2024-01-16T01:22:28.635Z,935.9
2024-01-16T01:23:30.589Z,935.9
2024-01-16T01:24:32.421Z,935.9
2024-01-16T01:25:34.163Z,936
2024-01-16T01:26:36.261Z,936.1
2024-01-16T01:27:38.057Z,935.9
2024-01-16T01:28:39.857Z,935.9
2024-01-16T01:29:41.720Z,935.8
2024-01-16T01:30:43.863Z,935.9
2024-01-16T01:31:45.924Z,936
2024-01-16T01:32:48.344Z,936
2024-01-16T01:33:50.830Z,935.9
2024-01-16T01:34:52.725Z,935.7
2024-01-16T01:35:54.757Z,935.7
2024-01-16T01:36:56.628Z,935.7
2024-01-16T01:37:58.401Z,935.8
2024-01-16T01:39:00.186Z,935.9
2024-01-16T01:40:01.985Z,935.8
2024-01-16T01:41:08.902Z,935.8
2024-01-16T01:42:10.920Z,935.8
2024-01-16T01:43:12.676Z,935.9
2024-01-16T01:44:14.627Z,935.8
2024-01-16T01:45:16.732Z,935.8
2024-01-16T01:46:18.670Z,935.8
2024-01-16T01:47:20.775Z,935.8
2024-01-16T01:48:23.048Z,935.8
2024-01-16T01:49:25.684Z,935.8
2024-01-16T01:50:27.733Z,935.8
2024-01-16T01:51:30.033Z,935.8
2024-01-16T01:52:31.789Z,935.8
2024-01-16T01:53:33.772Z,935.8
2024-01-16T01:54:35.560Z,935.8
2024-01-16T01:55:37.499Z,935.7
2024-01-16T01:56:39.338Z,935.8
2024-01-16T01:57:41.310Z,935.8
2024-01-16T01:58:43.033Z,935.8
2024-01-16T01:59:45.025Z,935.9
2024-01-16T02:00:47.187Z,935.9
2024-01-16T02:01:49.384Z,936
2024-01-16T02:02:51.709Z,936
2024-01-16T02:03:53.713Z,935.9
2024-01-16T02:04:55.865Z,935.9
2024-01-16T02:05:58.437Z,935.8
2024-01-16T02:07:00.608Z,935.8
2024-01-16T02:08:02.339Z,935.8
2024-01-16T02:09:04.319Z,935.9
2024-01-16T02:10:06.160Z,935.9
2024-01-16T02:11:08.001Z,935.9
2024-01-16T02:12:09.972Z,935.8
2024-01-16T02:13:11.765Z,935.8
2024-01-16T02:14:13.726Z,935.8
2024-01-16T02:15:15.592Z,935.9
2024-01-16T02:16:17.344Z,936
2024-01-16T02:17:19.477Z,936.1
2024-01-16T02:18:21.602Z,936
2024-01-16T02:19:23.807Z,936
2024-01-16T02:20:25.843Z,936
2024-01-16T02:21:27.712Z,936
2024-01-16T02:22:29.475Z,935.9
2024-01-16T02:23:31.401Z,935.9
2024-01-16T02:24:33.229Z,935.9
2024-01-16T02:25:35.005Z,936
2024-01-16T02:26:38.010Z,936.1
2024-01-16T02:27:39.887Z,936
2024-01-16T02:28:41.639Z,936
2024-01-16T02:29:46.741Z,936
2024-01-16T02:30:49.126Z,936
2024-01-16T02:31:51.270Z,936.1
2024-01-16T02:32:53.511Z,936.1
2024-01-16T02:33:56.187Z,936.1
2024-01-16T02:34:58.205Z,936.1
2024-01-16T02:35:59.964Z,936
2024-01-16T02:37:01.721Z,936
2024-01-16T02:38:03.636Z,936.1
2024-01-16T02:39:05.568Z,936.1
2024-01-16T02:40:07.991Z,936.2
2024-01-16T02:41:09.838Z,936.2
2024-01-16T02:42:11.666Z,936.3
2024-01-16T02:43:13.436Z,936.4
2024-01-16T02:44:15.442Z,936.3
2024-01-16T02:45:17.366Z,936.3
2024-01-16T02:46:19.133Z,936.3
2024-01-16T02:47:21.024Z,936.3
2024-01-16T02:48:23.495Z,936.3
2024-01-16T02:49:25.596Z,936.3
2024-01-16T02:50:27.763Z,936.3
2024-01-16T02:51:29.544Z,936.3
2024-01-16T02:52:31.285Z,936.3
2024-01-16T02:53:33.140Z,936.4
2024-01-16T02:54:35.031Z,936.5
2024-01-16T02:55:36.863Z,936.5
2024-01-16T02:56:38.913Z,936.4
2024-01-16T02:57:40.995Z,936.5
2024-01-16T02:58:42.741Z,936.6
2024-01-16T02:59:44.898Z,936.7
2024-01-16T03:00:47.096Z,936.7
2024-01-16T03:01:48.922Z,936.7
2024-01-16T03:02:51.067Z,936.7
2024-01-16T03:03:53.568Z,936.8
2024-01-16T03:04:55.392Z,936.9
2024-01-16T03:05:57.542Z,937
2024-01-16T03:07:01.110Z,937.1
2024-01-16T03:08:02.939Z,937.1
2024-01-16T03:09:04.725Z,937.1
2024-01-16T03:10:06.443Z,937.1
2024-01-16T03:11:08.478Z,937.2
2024-01-16T03:12:10.391Z,937.2
2024-01-16T03:13:12.212Z,937.2
2024-01-16T03:14:14.237Z,937.2
2024-01-16T03:15:16.147Z,937.2
2024-01-16T03:16:17.924Z,937.2
2024-01-16T03:17:19.981Z,937.3
2024-01-16T03:18:22.966Z,937.3
2024-01-16T03:19:25.835Z,937.3
2024-01-16T03:20:28.114Z,937.4
2024-01-16T03:21:29.958Z,937.4
2024-01-16T03:22:31.712Z,937.4
2024-01-16T03:23:33.570Z,937.5
2024-01-16T03:24:35.543Z,937.5
2024-01-16T03:25:37.244Z,937.6
2024-01-16T03:26:39.222Z,937.6
2024-01-16T03:27:41.113Z,937.7
2024-01-16T03:28:42.878Z,937.7
2024-01-16T03:29:45.125Z,937.7
2024-01-16T03:30:47.684Z,937.7
2024-01-16T03:31:49.997Z,937.7
2024-01-16T03:32:52.176Z,937.8
2024-01-16T03:33:54.515Z,937.8
2024-01-16T03:34:56.572Z,937.9
2024-01-16T03:35:58.480Z,937.9
2024-01-16T03:37:00.290Z,937.9
2024-01-16T03:38:02.090Z,937.9
2024-01-16T03:39:03.801Z,938
2024-01-16T03:40:05.509Z,938
2024-01-16T03:41:07.493Z,938
2024-01-16T03:42:09.266Z,938.1
2024-01-16T03:43:11.014Z,938
2024-01-16T03:44:12.932Z,938.1
2024-01-16T03:45:18.550Z,938.1
2024-01-16T03:46:20.360Z,938.2
2024-01-16T03:47:22.596Z,938.2
2024-01-16T03:48:25.130Z,938.2
2024-01-16T03:49:27.798Z,938.2
2024-01-16T03:50:30.118Z,938.3
2024-01-16T03:51:32.097Z,938.3
2024-01-16T03:52:33.796Z,938.3
2024-01-16T03:53:35.734Z,938.3
2024-01-16T03:54:37.689Z,938.3
2024-01-16T03:55:39.438Z,938.3
2024-01-16T03:56:41.377Z,938.4
2024-01-16T03:57:43.350Z,938.4
2024-01-16T03:58:45.192Z,938.4
2024-01-16T03:59:47.585Z,938.5
2024-01-16T04:00:49.660Z,938.5
2024-01-16T04:01:51.574Z,938.5
2024-01-16T04:02:53.633Z,938.5
2024-01-16T04:03:55.837Z,938.6
2024-01-16T04:04:57.965Z,938.5
2024-01-16T04:06:00.711Z,938.6
2024-01-16T04:07:02.976Z,938.6
2024-01-16T04:08:04.824Z,938.7
2024-01-16T04:09:06.903Z,938.7
2024-01-16T04:10:08.619Z,938.8
2024-01-16T04:11:10.473Z,938.8
2024-01-16T04:12:12.330Z,938.7
2024-01-16T04:13:14.057Z,938.8
2024-01-16T04:14:16.001Z,938.8
2024-01-16T04:15:23.862Z,938.9
2024-01-16T04:16:25.833Z,938.9
2024-01-16T04:17:27.788Z,938.9
2024-01-16T04:18:30.102Z,938.9
2024-01-16T04:19:32.563Z,939
2024-01-16T04:20:34.730Z,939
2024-01-16T04:21:36.552Z,939.1
2024-01-16T04:22:38.289Z,939
2024-01-16T04:23:40.256Z,939
2024-01-16T04:24:41.999Z,939
2024-01-16T04:25:43.821Z,939.1
2024-01-16T04:26:46.191Z,939.1
2024-01-16T04:27:48.558Z,939.1
2024-01-16T04:28:50.294Z,939.1
2024-01-16T04:29:52.869Z,939.1
2024-01-16T04:30:54.963Z,939.1
2024-01-16T04:31:57.146Z,939.1
2024-01-16T04:32:59.463Z,939.1
2024-01-16T04:34:01.934Z,939.2
2024-01-16T04:35:03.903Z,939.2
2024-01-16T04:36:05.730Z,939.2
2024-01-16T04:37:07.456Z,939.2
2024-01-16T04:38:09.268Z,939.3
2024-01-16T04:39:11.149Z,939.3
2024-01-16T04:40:12.986Z,939.3
2024-01-16T04:41:14.839Z,939.3
2024-01-16T04:42:16.626Z,939.3
2024-01-16T04:43:18.452Z,939.3
2024-01-16T04:44:20.264Z,939.3
2024-01-16T04:45:22.234Z,939.4
2024-01-16T04:46:23.983Z,939.3
2024-01-16T04:47:26.192Z,939.3
2024-01-16T04:48:28.556Z,939.3
2024-01-16T04:49:30.922Z,939.3
2024-01-16T04:50:33.952Z,939.4
2024-01-16T04:51:35.989Z,939.4
2024-01-16T04:52:37.751Z,939.4
2024-01-16T04:53:39.596Z,939.5
2024-01-16T04:54:41.461Z,939.5
2024-01-16T04:55:43.235Z,939.5
2024-01-16T04:56:45.379Z,939.6
2024-01-16T04:57:47.512Z,939.5
2024-01-16T04:58:49.331Z,939.6
2024-01-16T04:59:51.359Z,939.6
2024-01-16T05:00:53.720Z,939.7
2024-01-16T05:01:55.570Z,939.8
2024-01-16T05:02:57.763Z,939.8
2024-01-16T05:04:00.207Z,939.8
2024-01-16T05:05:02.576Z,939.9
2024-01-16T05:06:05.049Z,939.8
2024-01-16T05:07:07.254Z,939.9
2024-01-16T05:08:09.556Z,939.9
2024-01-16T05:09:11.529Z,939.9
2024-01-16T05:10:13.306Z,939.9
2024-01-16T05:11:15.190Z,940
2024-01-16T05:12:16.997Z,940
2024-01-16T05:13:18.760Z,940.1
2024-01-16T05:14:20.934Z,940.1
2024-01-16T05:15:23.016Z,940.1
2024-01-16T05:16:24.847Z,940.1
2024-01-16T05:17:26.974Z,940.2
2024-01-16T05:18:29.274Z,940.2
2024-01-16T05:19:31.455Z,940.2
2024-01-16T05:20:33.680Z,940.3
2024-01-16T05:21:35.557Z,940.3
2024-01-16T05:22:37.504Z,940.3
2024-01-16T05:23:39.372Z,940.3
2024-01-16T05:24:41.418Z,940.3
2024-01-16T05:25:43.183Z,940.3
2024-01-16T05:26:45.087Z,940.3
2024-01-16T05:27:47.125Z,940.4
2024-01-16T05:28:48.837Z,940.5
2024-01-16T05:29:50.981Z,940.4
2024-01-16T05:30:53.356Z,940.5
2024-01-16T05:31:55.443Z,940.5
2024-01-16T05:32:57.676Z,940.6
2024-01-16T05:33:59.878Z,940.6
2024-01-16T05:35:02.214Z,940.6
2024-01-16T05:36:04.257Z,940.7
2024-01-16T05:37:06.162Z,940.7
2024-01-16T05:38:08.302Z,940.7
2024-01-16T05:39:10.152Z,940.7
2024-01-16T05:40:11.907Z,940.7
2024-01-16T05:41:13.736Z,940.8
2024-01-16T05:42:15.634Z,940.8
2024-01-16T05:43:17.632Z,940.7
2024-01-16T05:44:19.643Z,940.7
2024-01-16T05:45:21.500Z,940.9
2024-01-16T05:46:23.237Z,940.9
2024-01-16T05:47:25.060Z,940.9
2024-01-16T05:48:27.137Z,941
2024-01-16T05:49:29.259Z,941
2024-01-16T05:50:32.001Z,941.1
2024-01-16T05:51:34.101Z,941.1
2024-01-16T05:52:35.880Z,941.1
2024-01-16T05:53:38.781Z,941.1
2024-01-16T05:54:40.513Z,941.1
2024-01-16T05:55:42.281Z,941.2
2024-01-16T05:56:44.274Z,941.2
2024-01-16T05:57:46.205Z,941.2
2024-01-16T05:58:47.922Z,941.4
2024-01-16T05:59:49.923Z,941.4
2024-01-16T06:00:52.145Z,941.5
2024-01-16T06:01:54.068Z,941.5
2024-01-16T06:02:55.972Z,941.5
2024-01-16T06:03:58.537Z,941.5
2024-01-16T06:05:00.771Z,941.6
2024-01-16T06:06:03.062Z,941.6
2024-01-16T06:07:05.163Z,941.6
2024-01-16T06:08:07.156Z,941.7
2024-01-16T06:09:09.163Z,941.7
2024-01-16T06:10:10.927Z,941.7
2024-01-16T06:11:15.682Z,941.8
2024-01-16T06:12:17.530Z,941.8
2024-01-16T06:13:20.495Z,941.8
2024-01-16T06:14:22.493Z,941.9
2024-01-16T06:15:24.922Z,941.9
2024-01-16T06:16:26.701Z,941.9
2024-01-16T06:17:28.821Z,941.9
2024-01-16T06:18:31.204Z,942
2024-01-16T06:19:33.645Z,942
2024-01-16T06:20:35.997Z,942
2024-01-16T06:21:37.940Z,942.1
2024-01-16T06:22:39.789Z,942.1
2024-01-16T06:23:41.879Z,942.1
2024-01-16T06:24:43.987Z,942.1
2024-01-16T06:25:45.757Z,942.2
2024-01-16T06:26:47.847Z,942.2
2024-01-16T06:27:50.044Z,942.3
2024-01-16T06:28:51.866Z,942.3
2024-01-16T06:29:53.893Z,942.3
2024-01-16T06:30:56.340Z,942.3
2024-01-16T06:31:58.691Z,942.3
2024-01-16T06:33:01.300Z,942.4
2024-01-16T06:34:03.773Z,942.5
2024-01-16T06:35:05.952Z,942.4
2024-01-16T06:36:08.109Z,942.5
2024-01-16T06:37:10.173Z,942.5
2024-01-16T06:38:12.189Z,942.6
2024-01-16T06:39:14.011Z,942.6
2024-01-16T06:40:15.857Z,942.7
2024-01-16T06:41:17.727Z,942.7
2024-01-16T06:42:19.518Z,942.7
2024-01-16T06:43:21.235Z,942.7
2024-01-16T06:44:23.151Z,942.8
2024-01-16T06:45:25.069Z,942.8
2024-01-16T06:46:26.871Z,942.8
2024-01-16T06:47:29.102Z,942.8
2024-01-16T06:48:31.889Z,942.8
2024-01-16T06:49:34.614Z,942.8
2024-01-16T06:50:36.836Z,942.9
2024-01-16T06:51:38.817Z,942.9
2024-01-16T06:52:40.689Z,942.9
2024-01-16T06:53:42.727Z,942.9
2024-01-16T06:54:44.594Z,943
2024-01-16T06:55:46.555Z,943
2024-01-16T06:56:48.597Z,943
2024-01-16T06:57:50.682Z,943
2024-01-16T06:58:52.435Z,943
2024-01-16T06:59:54.521Z,943
2024-01-16T07:00:56.667Z,943.1
2024-01-16T07:01:58.556Z,943.1
2024-01-16T07:03:00.371Z,943.2
2024-01-16T07:04:02.290Z,943.3
2024-01-16T07:05:04.290Z,943.2
2024-01-16T07:06:06.652Z,943.3
2024-01-16T07:07:08.756Z,943.2
2024-01-16T07:08:10.651Z,943.3
2024-01-16T07:09:12.534Z,943.4
2024-01-16T07:10:14.421Z,943.3
2024-01-16T07:11:16.501Z,943.3
2024-01-16T07:12:18.352Z,943.2
2024-01-16T07:13:20.063Z,943.3
2024-01-16T07:14:22.005Z,943.4
2024-01-16T07:15:24.061Z,943.4
2024-01-16T07:16:25.884Z,943.5
2024-01-16T07:17:27.992Z,943.5
2024-01-16T07:18:30.650Z,943.6
2024-01-16T07:19:32.804Z,943.6
2024-01-16T07:20:34.724Z,943.6
2024-01-16T07:21:36.550Z,943.6
2024-01-16T07:22:38.535Z,943.6
2024-01-16T07:23:40.557Z,943.6
2024-01-16T07:24:42.425Z,943.6
2024-01-16T07:25:46.853Z,943.7
2024-01-16T07:26:49.211Z,943.7
2024-01-16T07:27:51.142Z,943.8
2024-01-16T07:28:52.893Z,943.8
2024-01-16T07:29:54.922Z,943.8
2024-01-16T07:30:57.269Z,943.7
2024-01-16T07:31:59.366Z,943.8
2024-01-16T07:33:01.741Z,943.8
2024-01-16T07:34:04.729Z,943.8
2024-01-16T07:35:06.762Z,943.8
2024-01-16T07:36:08.526Z,943.8
2024-01-16T07:37:10.335Z,943.9
2024-01-16T07:38:12.128Z,943.9
2024-01-16T07:39:13.916Z,943.9
2024-01-16T07:40:15.725Z,944
2024-01-16T07:41:17.717Z,943.9
2024-01-16T07:42:19.874Z,943.9
2024-01-16T07:43:21.733Z,944
2024-01-16T07:44:23.587Z,943.9
2024-01-16T07:45:25.372Z,944
2024-01-16T07:46:27.120Z,944
2024-01-16T07:47:29.335Z,944
2024-01-16T07:48:31.845Z,944
2024-01-16T07:49:34.329Z,944
2024-01-16T07:50:36.430Z,943.9
2024-01-16T07:51:38.411Z,944
2024-01-16T07:52:40.118Z,944
2024-01-16T07:53:42.031Z,944.1
2024-01-16T07:54:43.896Z,944.1
2024-01-16T07:55:45.658Z,944.1
2024-01-16T07:56:47.963Z,944.1
2024-01-16T07:57:49.981Z,944.2
2024-01-16T07:58:51.757Z,944.2
2024-01-16T07:59:53.957Z,944.3
2024-01-16T08:00:56.069Z,944.3
2024-01-16T08:01:57.926Z,944.4
2024-01-16T08:02:59.976Z,944.4
2024-01-16T08:04:02.601Z,944.5
2024-01-16T08:05:04.648Z,944.5
2024-01-16T08:06:06.935Z,944.6
2024-01-16T08:07:09.096Z,944.6
2024-01-16T08:08:11.330Z,944.6
2024-01-16T08:09:13.487Z,944.6
2024-01-16T08:10:20.213Z,944.7
2024-01-16T08:11:22.201Z,944.7
2024-01-16T08:12:24.179Z,944.6
2024-01-16T08:13:26.012Z,944.7
2024-01-16T08:14:27.876Z,944.7
2024-01-16T08:15:29.779Z,944.6
2024-01-16T08:16:31.584Z,944.7
2024-01-16T08:17:33.853Z,944.7
2024-01-16T08:18:36.635Z,944.7
2024-01-16T08:19:38.924Z,944.8
2024-01-16T08:20:41.144Z,944.8
2024-01-16T08:21:43.055Z,944.9
2024-01-16T08:22:44.879Z,944.8
2024-01-16T08:23:46.878Z,944.8
2024-01-16T08:24:48.792Z,944.9
2024-01-16T08:25:50.533Z,944.9
2024-01-16T08:26:52.682Z,945
2024-01-16T08:27:54.773Z,945
2024-01-16T08:28:56.540Z,945
2024-01-16T08:29:58.537Z,945
2024-01-16T08:31:00.747Z,945
2024-01-16T08:32:02.778Z,945
2024-01-16T08:33:05.034Z,945
2024-01-16T08:34:08.030Z,944.9
2024-01-16T08:35:10.766Z,945
2024-01-16T08:36:13.077Z,945
2024-01-16T08:37:15.017Z,945.1
2024-01-16T08:38:16.911Z,945.1
2024-01-16T08:39:18.765Z,945.2
2024-01-16T08:40:20.610Z,945.2
2024-01-16T08:41:22.600Z,945.2
2024-01-16T08:42:24.740Z,945.3
2024-01-16T08:43:26.581Z,945.3
2024-01-16T08:44:28.606Z,945.2
2024-01-16T08:45:30.538Z,945.3
2024-01-16T08:46:32.384Z,945.3
2024-01-16T08:47:34.719Z,945.3
2024-01-16T08:48:37.866Z,945.3
2024-01-16T08:49:40.600Z,945.3
2024-01-16T08:50:42.798Z,945.3
2024-01-16T08:51:44.598Z,945.4
2024-01-16T08:52:46.364Z,945.4
2024-01-16T08:53:48.426Z,945.4
2024-01-16T08:54:50.321Z,945.4
2024-01-16T08:55:52.041Z,945.5
2024-01-16T08:56:54.077Z,945.5
2024-01-16T08:57:56.066Z,945.6
2024-01-16T08:58:57.819Z,945.6
2024-01-16T08:59:59.839Z,945.6
2024-01-16T09:01:02.112Z,945.6
2024-01-16T09:02:04.009Z,945.6
2024-01-16T09:03:06.346Z,945.7
2024-01-16T09:04:08.276Z,945.7
2024-01-16T09:05:10.580Z,945.7
2024-01-16T09:06:13.346Z,945.7
2024-01-16T09:07:15.988Z,945.7
2024-01-16T09:08:18.050Z,945.7
2024-01-16T09:09:20.135Z,945.7
2024-01-16T09:10:22.209Z,945.7
2024-01-16T09:11:24.126Z,945.7
2024-01-16T09:12:26.048Z,945.8
2024-01-16T09:13:27.805Z,945.7
2024-01-16T09:14:29.754Z,945.7
2024-01-16T09:15:31.754Z,945.7
2024-01-16T09:16:33.553Z,945.7
2024-01-16T09:17:35.832Z,945.7
2024-01-16T09:18:38.856Z,945.7
2024-01-16T09:19:41.218Z,945.7
2024-01-16T09:20:43.234Z,945.7
2024-01-16T09:21:45.151Z,945.7
2024-01-16T09:22:46.921Z,945.7
2024-01-16T09:23:48.949Z,945.7
2024-01-16T09:24:50.810Z,945.7
2024-01-16T09:25:52.605Z,945.7
2024-01-16T09:26:54.691Z,945.7
2024-01-16T09:27:56.611Z,945.7
2024-01-16T09:28:58.403Z,945.7
2024-01-16T09:30:00.484Z,945.7
2024-01-16T09:31:02.864Z,945.8
2024-01-16T09:32:04.945Z,945.8
2024-01-16T09:33:07.248Z,945.8
2024-01-16T09:34:10.869Z,945.8
2024-01-16T09:35:13.295Z,945.8
2024-01-16T09:36:15.325Z,945.9
2024-01-16T09:37:17.117Z,945.9
2024-01-16T09:38:23.878Z,945.9
2024-01-16T09:39:26.019Z,945.8
2024-01-16T09:40:27.810Z,945.8
2024-01-16T09:41:29.864Z,945.8
2024-01-16T09:42:31.793Z,945.8
2024-01-16T09:43:33.517Z,945.8
2024-01-16T09:44:35.594Z,945.8
2024-01-16T09:45:37.619Z,945.8
2024-01-16T09:46:40.265Z,945.8
2024-01-16T09:47:42.851Z,945.8
2024-01-16T09:48:45.953Z,945.8
2024-01-16T09:49:48.248Z,945.9
2024-01-16T09:50:50.333Z,945.9
2024-01-16T09:51:52.226Z,945.9
2024-01-16T09:53:00.175Z,945.9
2024-01-16T09:54:02.629Z,945.9
2024-01-16T09:55:04.755Z,945.9
2024-01-16T09:56:06.611Z,945.9
2024-01-16T09:57:08.419Z,945.9
2024-01-16T09:58:10.154Z,946
2024-01-16T09:59:12.029Z,946
2024-01-16T10:00:14.041Z,946
2024-01-16T10:01:16.093Z,946
2024-01-16T10:02:18.487Z,946
2024-01-16T10:03:20.512Z,946
2024-01-16T10:04:22.610Z,945.9
2024-01-16T10:05:24.954Z,946
2024-01-16T10:06:27.440Z,945.9
2024-01-16T10:07:29.778Z,945.9
2024-01-16T10:08:31.919Z,945.9
2024-01-16T10:09:33.809Z,945.9
2024-01-16T10:10:51.967Z,945.9
2024-01-16T10:11:55.940Z,945.9
2024-01-16T10:12:57.972Z,945.9
2024-01-16T10:13:59.905Z,946
2024-01-16T10:15:02.027Z,946
2024-01-16T10:16:04.164Z,946
2024-01-16T10:17:05.928Z,945.9
2024-01-16T10:18:08.271Z,945.9
2024-01-16T10:19:10.858Z,946
2024-01-16T10:20:15.888Z,945.9
2024-01-16T10:21:17.832Z,945.9
2024-01-16T10:22:25.794Z,945.9
2024-01-16T10:23:29.801Z,945.9
2024-01-16T10:24:31.686Z,945.9
2024-01-16T10:25:33.434Z,946
2024-01-16T10:26:35.249Z,946
2024-01-16T10:27:37.101Z,946
2024-01-16T10:28:38.911Z,946
2024-01-16T10:29:51.231Z,946
2024-01-16T10:30:53.663Z,946
2024-01-16T10:31:56.162Z,945.9
2024-01-16T10:32:58.959Z,945.9
2024-01-16T10:34:01.904Z,945.9
2024-01-16T10:35:04.618Z,945.9
2024-01-16T10:36:06.988Z,945.9
2024-01-16T10:37:09.039Z,945.9
2024-01-16T10:38:11.280Z,945.9
2024-01-16T10:39:13.287Z,946
2024-01-16T10:40:15.079Z,946.1
2024-01-16T10:41:17.202Z,946
2024-01-16T10:42:19.441Z,946
2024-01-16T10:43:21.239Z,946.1
2024-01-16T10:44:23.095Z,946.1
2024-01-16T10:45:24.975Z,946.1
2024-01-16T10:46:26.956Z,946.1
2024-01-16T10:47:29.168Z,946.1
2024-01-16T10:48:31.649Z,946
2024-01-16T10:49:46.897Z,946.1
2024-01-16T10:50:48.934Z,946.1
2024-01-16T10:51:50.831Z,946.2
2024-01-16T10:52:52.616Z,946.2
2024-01-16T10:53:54.658Z,946.2
2024-01-16T10:54:56.565Z,946.2
2024-01-16T10:55:58.504Z,946.2
2024-01-16T10:57:00.653Z,946.1
2024-01-16T10:58:02.604Z,946.1
2024-01-16T10:59:04.455Z,946.1
2024-01-16T11:00:06.302Z,946.1
2024-01-16T11:01:08.323Z,946.1
2024-01-16T11:02:10.191Z,946.1
2024-01-16T11:03:12.212Z,946.1
2024-01-16T11:04:16.875Z,946.1
2024-01-16T11:05:19.303Z,946.1
2024-01-16T11:06:21.828Z,946.1
2024-01-16T11:07:23.781Z,946
2024-01-16T11:08:25.625Z,946
2024-01-16T11:09:27.529Z,946.1
2024-01-16T11:10:29.335Z,946.1
2024-01-16T11:11:31.414Z,946.1
2024-01-16T11:12:33.248Z,946.1
2024-01-16T11:13:35.077Z,946.2
2024-01-16T11:14:36.897Z,946.2
2024-01-16T11:15:38.823Z,946.2
2024-01-16T11:16:40.666Z,946.2
2024-01-16T11:17:42.770Z,946.2
2024-01-16T11:18:45.288Z,946.2
2024-01-16T11:20:38.714Z,946.2
2024-01-16T11:22:09.664Z,946.3
2024-01-16T11:23:11.710Z,946.3
2024-01-16T11:24:13.540Z,946.2
2024-01-16T11:25:15.369Z,946.2
2024-01-16T11:26:17.311Z,946.2
2024-01-16T11:27:19.273Z,946.2
2024-01-16T11:28:21.197Z,946.2
2024-01-16T11:29:23.070Z,946.2
2024-01-16T11:30:25.290Z,946.2
2024-01-16T11:31:27.162Z,946.2
2024-01-16T11:32:33.770Z,946.2
2024-01-16T11:33:36.389Z,946.2
2024-01-16T11:34:38.919Z,946.2
2024-01-16T11:35:41.387Z,946.2
2024-01-16T11:36:43.358Z,946.3
2024-01-16T11:37:45.279Z,946.3
2024-01-16T11:38:47.192Z,946.2
2024-01-16T11:39:49.154Z,946.3
2024-01-16T11:40:50.900Z,946.3
2024-01-16T11:41:53.247Z,946.3
2024-01-16T11:42:55.437Z,946.3
2024-01-16T11:43:57.193Z,946.3
2024-01-16T11:44:59.359Z,946.4
2024-01-16T11:46:01.578Z,946.4
2024-01-16T11:47:03.456Z,946.3
2024-01-16T11:48:06.291Z,946.3
2024-01-16T11:49:08.852Z,946.3
2024-01-16T11:50:11.014Z,946.3
2024-01-16T11:51:13.079Z,946.3
2024-01-16T11:52:14.925Z,946.3
2024-01-16T11:53:16.973Z,946.3
2024-01-16T11:54:18.873Z,946.4
2024-01-16T11:55:20.661Z,946.4
2024-01-16T11:56:46.065Z,946.4
2024-01-16T11:57:50.997Z,946.4
2024-01-16T11:58:52.726Z,946.4
2024-01-16T11:59:54.689Z,946.5
2024-01-16T12:00:56.832Z,946.4
2024-01-16T12:01:58.743Z,946.5
2024-01-16T12:03:00.884Z,946.5
2024-01-16T12:04:03.009Z,946.4
2024-01-16T12:05:05.176Z,946.4
2024-01-16T12:06:07.532Z,946.4
2024-01-16T12:07:10.885Z,946.4
2024-01-16T12:08:12.904Z,946.4
2024-01-16T12:09:14.849Z,946.5
2024-01-16T12:10:16.665Z,946.5
2024-01-16T12:11:25.237Z,946.5
2024-01-16T12:12:39.115Z,946.6
2024-01-16T12:13:40.882Z,946.6
2024-01-16T12:14:42.726Z,946.6
2024-01-16T12:15:44.574Z,946.7
2024-01-16T12:16:46.352Z,946.6
2024-01-16T12:17:48.646Z,946.7
2024-01-16T12:18:51.331Z,946.7
2024-01-16T12:19:53.879Z,946.7
2024-01-16T12:20:56.083Z,946.7
2024-01-16T12:21:57.943Z,946.7
2024-01-16T12:22:59.734Z,946.7
2024-01-16T12:24:17.240Z,946.7
2024-01-16T12:25:20.791Z,946.7
2024-01-16T12:26:22.759Z,946.7
2024-01-16T12:27:24.815Z,946.7
2024-01-16T12:28:34.617Z,946.7
2024-01-16T12:29:36.731Z,946.7
2024-01-16T12:30:39.042Z,946.7
2024-01-16T12:31:40.966Z,946.7
2024-01-16T12:32:43.610Z,946.7
2024-01-16T12:34:04.967Z,946.7
2024-01-16T12:35:07.217Z,946.8
2024-01-16T12:36:09.124Z,946.7
2024-01-16T12:37:10.968Z,946.8
2024-01-16T12:38:12.780Z,946.8
2024-01-16T12:39:14.855Z,946.8
2024-01-16T12:40:16.603Z,946.8
2024-01-16T12:41:39.522Z,946.8
2024-01-16T12:42:45.290Z,946.8
2024-01-16T12:44:07.707Z,946.8
2024-01-16T12:45:19.498Z,946.8
2024-01-16T12:46:21.262Z,946.9
2024-01-16T12:47:23.562Z,946.9
2024-01-16T12:48:26.914Z,946.9
2024-01-16T12:49:30.222Z,947
2024-01-16T12:50:32.471Z,947
2024-01-16T12:51:34.616Z,947
2024-01-16T12:52:36.420Z,947
2024-01-16T12:53:39.192Z,947
2024-01-16T12:54:41.436Z,947
2024-01-16T12:55:43.197Z,947
2024-01-16T12:56:45.327Z,947
2024-01-16T12:57:47.363Z,947
2024-01-16T12:58:51.749Z,947
2024-01-16T12:59:54.060Z,946.9
2024-01-16T13:00:56.259Z,946.9
2024-01-16T13:01:58.098Z,946.9
2024-01-16T13:03:00.544Z,946.9
2024-01-16T13:04:02.692Z,946.8
2024-01-16T13:05:05.183Z,946.8
2024-01-16T13:06:07.786Z,946.8
2024-01-16T13:07:10.643Z,946.8
2024-01-16T13:08:12.863Z,946.9
2024-01-16T13:09:14.732Z,946.9
2024-01-16T13:10:19.551Z,946.9
2024-01-16T13:11:39.731Z,946.9
2024-01-16T13:12:41.861Z,946.9
2024-01-16T13:13:44.035Z,946.9
2024-01-16T13:14:45.954Z,946.9
2024-01-16T13:15:47.955Z,946.9
2024-01-16T13:16:49.779Z,946.9
2024-01-16T13:17:51.909Z,946.9
2024-01-16T13:18:54.158Z,947
2024-01-16T13:19:56.125Z,947
2024-01-16T13:20:58.182Z,947
2024-01-16T13:22:00.387Z,947
2024-01-16T13:23:02.158Z,947
2024-01-16T13:24:04.262Z,947.1
2024-01-16T13:25:10.224Z,947.1
2024-01-16T13:26:12.509Z,947.1
2024-01-16T13:27:14.426Z,947.1
2024-01-16T13:28:16.540Z,947.1
2024-01-16T13:29:18.473Z,947.2
2024-01-16T13:30:22.766Z,947.2
2024-01-16T13:31:37.567Z,947.2
2024-01-16T13:32:40.200Z,947.1